sensor_id;sensor_type;location;lat;lon;timestamp;temperature;humidity
42097;DHT22;27754;45.414;11.084;2022-11-20T00:01:19;8.90;84.50
42097;DHT22;27754;45.414;11.084;2022-11-20T00:03:46;8.90;84.70
42097;DHT22;27754;45.414;11.084;2022-11-20T00:06:16;8.80;85.00
42097;DHT22;27754;45.414;11.084;2022-11-20T00:08:43;8.80;85.50
42097;DHT22;27754;45.414;11.084;2022-11-20T00:11:13;8.80;85.60
42097;DHT22;27754;45.414;11.084;2022-11-20T00:13:43;8.70;85.60
42097;DHT22;27754;45.414;11.084;2022-11-20T00:16:12;8.60;85.90
42097;DHT22;27754;45.414;11.084;2022-11-20T00:18:40;8.60;85.60
42097;DHT22;27754;45.414;11.084;2022-11-20T00:21:20;8.50;85.50
42097;DHT22;27754;45.414;11.084;2022-11-20T00:23:48;8.40;85.80
42097;DHT22;27754;45.414;11.084;2022-11-20T00:26:18;8.40;85.80
42097;DHT22;27754;45.414;11.084;2022-11-20T00:28:53;8.40;85.50
42097;DHT22;27754;45.414;11.084;2022-11-20T00:31:21;8.40;85.50
42097;DHT22;27754;45.414;11.084;2022-11-20T00:33:48;8.40;85.40
42097;DHT22;27754;45.414;11.084;2022-11-20T00:36:17;8.40;85.20
42097;DHT22;27754;45.414;11.084;2022-11-20T00:38:45;8.40;85.50
42097;DHT22;27754;45.414;11.084;2022-11-20T00:41:15;8.40;85.50
42097;DHT22;27754;45.414;11.084;2022-11-20T00:43:43;8.40;85.40
42097;DHT22;27754;45.414;11.084;2022-11-20T00:46:13;8.40;85.60
42097;DHT22;27754;45.414;11.084;2022-11-20T00:48:40;8.30;85.50
42097;DHT22;27754;45.414;11.084;2022-11-20T00:51:08;8.30;85.20
42097;DHT22;27754;45.414;11.084;2022-11-20T00:53:34;8.20;85.20
42097;DHT22;27754;45.414;11.084;2022-11-20T00:56:04;8.20;85.80
42097;DHT22;27754;45.414;11.084;2022-11-20T00:58:36;8.20;85.70
42097;DHT22;27754;45.414;11.084;2022-11-20T01:01:18;8.10;85.50
42097;DHT22;27754;45.414;11.084;2022-11-20T01:03:47;8.10;85.90
42097;DHT22;27754;45.414;11.084;2022-11-20T01:06:20;8.10;85.80
42097;DHT22;27754;45.414;11.084;2022-11-20T01:08:49;8.10;85.70
42097;DHT22;27754;45.414;11.084;2022-11-20T01:11:28;8.10;85.70
42097;DHT22;27754;45.414;11.084;2022-11-20T01:13:56;8.20;86.10
42097;DHT22;27754;45.414;11.084;2022-11-20T01:16:34;8.20;86.30
42097;DHT22;27754;45.414;11.084;2022-11-20T01:19:05;8.10;86.20
42097;DHT22;27754;45.414;11.084;2022-11-20T01:21:37;8.00;86.50
42097;DHT22;27754;45.414;11.084;2022-11-20T01:24:06;7.90;86.40
42097;DHT22;27754;45.414;11.084;2022-11-20T01:26:36;7.80;86.20
42097;DHT22;27754;45.414;11.084;2022-11-20T01:29:04;7.80;85.70
42097;DHT22;27754;45.414;11.084;2022-11-20T01:31:36;7.90;85.40
42097;DHT22;27754;45.414;11.084;2022-11-20T01:34:06;7.90;85.10
42097;DHT22;27754;45.414;11.084;2022-11-20T01:36:34;8.00;84.90
42097;DHT22;27754;45.414;11.084;2022-11-20T01:39:06;8.00;85.00
42097;DHT22;27754;45.414;11.084;2022-11-20T01:41:34;7.90;85.10
42097;DHT22;27754;45.414;11.084;2022-11-20T01:44:41;7.90;85.50
42097;DHT22;27754;45.414;11.084;2022-11-20T01:47:09;7.80;85.70
42097;DHT22;27754;45.414;11.084;2022-11-20T01:49:42;7.80;85.80
42097;DHT22;27754;45.414;11.084;2022-11-20T01:52:26;7.80;85.90
42097;DHT22;27754;45.414;11.084;2022-11-20T01:55:04;7.90;85.70
42097;DHT22;27754;45.414;11.084;2022-11-20T01:57:33;8.00;85.60
42097;DHT22;27754;45.414;11.084;2022-11-20T02:00:10;8.00;85.50
42097;DHT22;27754;45.414;11.084;2022-11-20T02:02:48;7.90;85.40
42097;DHT22;27754;45.414;11.084;2022-11-20T02:08:08;7.90;85.50
42097;DHT22;27754;45.414;11.084;2022-11-20T02:10:35;7.80;85.80
42097;DHT22;27754;45.414;11.084;2022-11-20T02:13:02;7.80;85.80
42097;DHT22;27754;45.414;11.084;2022-11-20T02:15:48;7.80;86.00
42097;DHT22;27754;45.414;11.084;2022-11-20T02:18:18;7.80;86.20
42097;DHT22;27754;45.414;11.084;2022-11-20T02:20:48;7.80;86.40
42097;DHT22;27754;45.414;11.084;2022-11-20T02:23:39;7.80;86.10
42097;DHT22;27754;45.414;11.084;2022-11-20T02:26:10;7.80;86.20
42097;DHT22;27754;45.414;11.084;2022-11-20T02:28:38;7.80;85.90
42097;DHT22;27754;45.414;11.084;2022-11-20T02:31:05;7.90;85.00
42097;DHT22;27754;45.414;11.084;2022-11-20T02:33:32;7.90;84.80
42097;DHT22;27754;45.414;11.084;2022-11-20T02:35:59;7.80;85.20
42097;DHT22;27754;45.414;11.084;2022-11-20T02:38:27;7.80;85.50
42097;DHT22;27754;45.414;11.084;2022-11-20T02:40:54;7.80;85.80
42097;DHT22;27754;45.414;11.084;2022-11-20T02:43:22;7.70;86.00
42097;DHT22;27754;45.414;11.084;2022-11-20T02:45:49;7.70;85.80
42097;DHT22;27754;45.414;11.084;2022-11-20T02:48:16;7.70;86.20
42097;DHT22;27754;45.414;11.084;2022-11-20T02:50:43;7.60;85.40
42097;DHT22;27754;45.414;11.084;2022-11-20T02:53:09;7.50;86.00
42097;DHT22;27754;45.414;11.084;2022-11-20T02:55:36;7.40;86.10
42097;DHT22;27754;45.414;11.084;2022-11-20T02:58:03;7.40;86.70
42097;DHT22;27754;45.414;11.084;2022-11-20T03:00:31;7.40;86.70
42097;DHT22;27754;45.414;11.084;2022-11-20T03:02:58;7.40;86.10
42097;DHT22;27754;45.414;11.084;2022-11-20T03:05:25;7.30;86.50
42097;DHT22;27754;45.414;11.084;2022-11-20T03:07:52;7.20;86.60
42097;DHT22;27754;45.414;11.084;2022-11-20T03:10:19;7.20;86.80
42097;DHT22;27754;45.414;11.084;2022-11-20T03:12:46;7.20;87.00
42097;DHT22;27754;45.414;11.084;2022-11-20T03:15:13;7.30;87.10
42097;DHT22;27754;45.414;11.084;2022-11-20T03:17:40;7.40;87.20
42097;DHT22;27754;45.414;11.084;2022-11-20T03:20:07;7.40;87.30
42097;DHT22;27754;45.414;11.084;2022-11-20T03:22:35;7.40;87.40
42097;DHT22;27754;45.414;11.084;2022-11-20T03:25:03;7.40;87.40
42097;DHT22;27754;45.414;11.084;2022-11-20T03:27:33;7.30;87.50
42097;DHT22;27754;45.414;11.084;2022-11-20T03:30:00;7.40;87.70
42097;DHT22;27754;45.414;11.084;2022-11-20T03:32:27;7.40;87.80
42097;DHT22;27754;45.414;11.084;2022-11-20T03:34:54;7.40;87.80
42097;DHT22;27754;45.414;11.084;2022-11-20T03:37:21;7.40;87.70
42097;DHT22;27754;45.414;11.084;2022-11-20T03:39:48;7.40;87.60
42097;DHT22;27754;45.414;11.084;2022-11-20T03:42:15;7.30;87.40
42097;DHT22;27754;45.414;11.084;2022-11-20T03:45:00;7.30;87.50
42097;DHT22;27754;45.414;11.084;2022-11-20T03:47:27;7.30;87.20
42097;DHT22;27754;45.414;11.084;2022-11-20T03:49:55;7.30;87.30
42097;DHT22;27754;45.414;11.084;2022-11-20T03:52:22;7.20;87.50
42097;DHT22;27754;45.414;11.084;2022-11-20T03:54:48;7.20;87.50
42097;DHT22;27754;45.414;11.084;2022-11-20T03:57:15;7.10;87.50
42097;DHT22;27754;45.414;11.084;2022-11-20T03:59:42;7.10;88.20
42097;DHT22;27754;45.414;11.084;2022-11-20T04:02:09;6.90;88.10
42097;DHT22;27754;45.414;11.084;2022-11-20T04:04:36;6.90;88.30
42097;DHT22;27754;45.414;11.084;2022-11-20T04:07:03;6.90;88.20
42097;DHT22;27754;45.414;11.084;2022-11-20T04:09:30;6.90;88.30
42097;DHT22;27754;45.414;11.084;2022-11-20T04:11:57;6.80;87.80
42097;DHT22;27754;45.414;11.084;2022-11-20T04:14:24;6.60;87.90
42097;DHT22;27754;45.414;11.084;2022-11-20T04:16:51;6.50;88.00
42097;DHT22;27754;45.414;11.084;2022-11-20T04:19:18;6.60;88.50
42097;DHT22;27754;45.414;11.084;2022-11-20T04:21:45;6.60;88.50
42097;DHT22;27754;45.414;11.084;2022-11-20T04:24:12;6.60;88.00
42097;DHT22;27754;45.414;11.084;2022-11-20T04:26:40;6.40;87.60
42097;DHT22;27754;45.414;11.084;2022-11-20T04:29:09;6.40;88.60
42097;DHT22;27754;45.414;11.084;2022-11-20T04:31:36;6.60;88.70
42097;DHT22;27754;45.414;11.084;2022-11-20T04:34:05;6.60;88.50
42097;DHT22;27754;45.414;11.084;2022-11-20T04:36:32;6.60;88.20
42097;DHT22;27754;45.414;11.084;2022-11-20T04:39:02;6.50;88.10
42097;DHT22;27754;45.414;11.084;2022-11-20T04:41:33;6.50;88.20
42097;DHT22;27754;45.414;11.084;2022-11-20T04:44:02;6.40;88.30
42097;DHT22;27754;45.414;11.084;2022-11-20T04:46:35;6.40;88.90
42097;DHT22;27754;45.414;11.084;2022-11-20T04:49:03;6.50;88.70
42097;DHT22;27754;45.414;11.084;2022-11-20T04:51:30;6.60;88.20
42097;DHT22;27754;45.414;11.084;2022-11-20T04:53:57;6.60;87.80
42097;DHT22;27754;45.414;11.084;2022-11-20T04:56:24;6.60;87.80
42097;DHT22;27754;45.414;11.084;2022-11-20T04:58:51;6.60;87.70
42097;DHT22;27754;45.414;11.084;2022-11-20T05:01:21;6.60;87.80
42097;DHT22;27754;45.414;11.084;2022-11-20T05:03:49;6.60;87.60
42097;DHT22;27754;45.414;11.084;2022-11-20T05:06:18;6.60;87.50
42097;DHT22;27754;45.414;11.084;2022-11-20T05:08:45;6.60;87.40
42097;DHT22;27754;45.414;11.084;2022-11-20T05:11:17;6.60;87.60
42097;DHT22;27754;45.414;11.084;2022-11-20T05:13:44;6.40;87.60
42097;DHT22;27754;45.414;11.084;2022-11-20T05:16:17;6.50;88.00
42097;DHT22;27754;45.414;11.084;2022-11-20T05:18:45;6.50;88.10
42097;DHT22;27754;45.414;11.084;2022-11-20T05:21:13;6.50;88.00
42097;DHT22;27754;45.414;11.084;2022-11-20T05:23:40;6.40;87.90
42097;DHT22;27754;45.414;11.084;2022-11-20T05:26:12;6.40;88.00
42097;DHT22;27754;45.414;11.084;2022-11-20T05:28:39;6.30;88.10
42097;DHT22;27754;45.414;11.084;2022-11-20T05:31:07;6.20;88.50
42097;DHT22;27754;45.414;11.084;2022-11-20T05:33:35;6.10;88.80
42097;DHT22;27754;45.414;11.084;2022-11-20T05:36:03;6.10;89.00
42097;DHT22;27754;45.414;11.084;2022-11-20T05:38:30;6.20;89.10
42097;DHT22;27754;45.414;11.084;2022-11-20T05:41:08;6.20;89.10
42097;DHT22;27754;45.414;11.084;2022-11-20T05:43:38;6.20;89.50
42097;DHT22;27754;45.414;11.084;2022-11-20T05:46:06;6.10;89.50
42097;DHT22;27754;45.414;11.084;2022-11-20T05:48:35;6.20;89.40
42097;DHT22;27754;45.414;11.084;2022-11-20T05:51:03;6.10;89.00
42097;DHT22;27754;45.414;11.084;2022-11-20T05:53:32;6.10;88.90
42097;DHT22;27754;45.414;11.084;2022-11-20T05:56:08;6.10;89.40
42097;DHT22;27754;45.414;11.084;2022-11-20T05:58:37;6.10;89.60
42097;DHT22;27754;45.414;11.084;2022-11-20T06:01:19;6.10;89.50
42097;DHT22;27754;45.414;11.084;2022-11-20T06:03:47;6.10;89.40
42097;DHT22;27754;45.414;11.084;2022-11-20T06:06:15;6.00;89.30
42097;DHT22;27754;45.414;11.084;2022-11-20T06:08:43;6.10;89.30
42097;DHT22;27754;45.414;11.084;2022-11-20T06:11:12;6.00;89.10
42097;DHT22;27754;45.414;11.084;2022-11-20T06:13:40;5.90;89.20
42097;DHT22;27754;45.414;11.084;2022-11-20T06:16:09;5.90;89.80
42097;DHT22;27754;45.414;11.084;2022-11-20T06:18:37;6.00;89.90
42097;DHT22;27754;45.414;11.084;2022-11-20T06:21:13;6.00;89.90
42097;DHT22;27754;45.414;11.084;2022-11-20T06:23:40;6.00;89.70
42097;DHT22;27754;45.414;11.084;2022-11-20T06:26:12;5.90;89.40
42097;DHT22;27754;45.414;11.084;2022-11-20T06:28:40;5.90;89.30
42097;DHT22;27754;45.414;11.084;2022-11-20T06:31:09;5.90;89.10
42097;DHT22;27754;45.414;11.084;2022-11-20T06:33:36;5.80;88.60
42097;DHT22;27754;45.414;11.084;2022-11-20T06:36:04;5.50;87.60
42097;DHT22;27754;45.414;11.084;2022-11-20T06:38:36;5.60;88.40
42097;DHT22;27754;45.414;11.084;2022-11-20T06:41:10;5.60;88.40
42097;DHT22;27754;45.414;11.084;2022-11-20T06:43:37;5.60;88.30
42097;DHT22;27754;45.414;11.084;2022-11-20T06:46:04;5.60;88.70
42097;DHT22;27754;45.414;11.084;2022-11-20T06:48:32;5.60;88.60
42097;DHT22;27754;45.414;11.084;2022-11-20T06:50:59;5.60;88.50
42097;DHT22;27754;45.414;11.084;2022-11-20T06:53:26;5.50;88.40
42097;DHT22;27754;45.414;11.084;2022-11-20T06:55:55;5.50;88.50
42097;DHT22;27754;45.414;11.084;2022-11-20T06:58:23;5.60;88.00
42097;DHT22;27754;45.414;11.084;2022-11-20T07:00:50;5.50;87.50
42097;DHT22;27754;45.414;11.084;2022-11-20T07:03:17;5.60;87.20
42097;DHT22;27754;45.414;11.084;2022-11-20T07:05:43;5.60;87.00
42097;DHT22;27754;45.414;11.084;2022-11-20T07:08:12;5.60;87.00
42097;DHT22;27754;45.414;11.084;2022-11-20T07:10:39;5.70;87.20
42097;DHT22;27754;45.414;11.084;2022-11-20T07:13:05;5.70;86.80
42097;DHT22;27754;45.414;11.084;2022-11-20T07:15:33;5.80;87.10
42097;DHT22;27754;45.414;11.084;2022-11-20T07:18:00;5.80;87.50
42097;DHT22;27754;45.414;11.084;2022-11-20T07:20:28;5.80;87.00
42097;DHT22;27754;45.414;11.084;2022-11-20T07:22:56;5.90;86.90
42097;DHT22;27754;45.414;11.084;2022-11-20T07:25:27;5.90;86.70
42097;DHT22;27754;45.414;11.084;2022-11-20T07:27:58;6.00;86.60
42097;DHT22;27754;45.414;11.084;2022-11-20T07:30:26;6.10;85.80
42097;DHT22;27754;45.414;11.084;2022-11-20T07:32:54;6.20;86.30
42097;DHT22;27754;45.414;11.084;2022-11-20T07:35:23;6.30;86.10
42097;DHT22;27754;45.414;11.084;2022-11-20T07:37:50;6.40;86.10
42097;DHT22;27754;45.414;11.084;2022-11-20T07:40:17;6.50;85.90
42097;DHT22;27754;45.414;11.084;2022-11-20T07:42:49;6.60;85.70
42097;DHT22;27754;45.414;11.084;2022-11-20T07:45:17;6.70;85.60
42097;DHT22;27754;45.414;11.084;2022-11-20T07:47:44;6.80;85.20
42097;DHT22;27754;45.414;11.084;2022-11-20T07:50:11;6.90;84.70
42097;DHT22;27754;45.414;11.084;2022-11-20T07:52:39;7.00;84.60
42097;DHT22;27754;45.414;11.084;2022-11-20T07:55:07;7.20;84.70
42097;DHT22;27754;45.414;11.084;2022-11-20T07:57:34;7.30;84.70
42097;DHT22;27754;45.414;11.084;2022-11-20T08:00:03;7.50;84.30
42097;DHT22;27754;45.414;11.084;2022-11-20T08:02:41;7.60;84.20
42097;DHT22;27754;45.414;11.084;2022-11-20T08:05:09;7.80;84.10
42097;DHT22;27754;45.414;11.084;2022-11-20T08:07:37;7.90;83.90
42097;DHT22;27754;45.414;11.084;2022-11-20T08:10:05;8.00;83.80
42097;DHT22;27754;45.414;11.084;2022-11-20T08:12:32;8.10;83.70
42097;DHT22;27754;45.414;11.084;2022-11-20T08:15:18;8.20;83.50
42097;DHT22;27754;45.414;11.084;2022-11-20T08:17:45;8.40;83.70
42097;DHT22;27754;45.414;11.084;2022-11-20T08:20:32;8.40;83.60
42097;DHT22;27754;45.414;11.084;2022-11-20T08:23:04;8.50;84.10
42097;DHT22;27754;45.414;11.084;2022-11-20T08:25:34;8.50;83.80
42097;DHT22;27754;45.414;11.084;2022-11-20T08:28:05;8.60;83.50
42097;DHT22;27754;45.414;11.084;2022-11-20T08:30:46;8.70;83.00
42097;DHT22;27754;45.414;11.084;2022-11-20T08:33:13;8.80;82.70
42097;DHT22;27754;45.414;11.084;2022-11-20T08:35:40;8.90;80.90
42097;DHT22;27754;45.414;11.084;2022-11-20T08:38:08;8.90;80.50
42097;DHT22;27754;45.414;11.084;2022-11-20T08:40:35;9.00;80.60
42097;DHT22;27754;45.414;11.084;2022-11-20T08:43:02;9.10;79.60
42097;DHT22;27754;45.414;11.084;2022-11-20T08:45:29;9.10;78.80
42097;DHT22;27754;45.414;11.084;2022-11-20T08:48:03;9.30;78.60
42097;DHT22;27754;45.414;11.084;2022-11-20T08:50:33;9.40;78.70
42097;DHT22;27754;45.414;11.084;2022-11-20T08:53:06;9.40;79.10
42097;DHT22;27754;45.414;11.084;2022-11-20T08:55:33;9.60;78.90
42097;DHT22;27754;45.414;11.084;2022-11-20T08:58:06;9.70;79.30
42097;DHT22;27754;45.414;11.084;2022-11-20T09:00:34;9.70;79.30
42097;DHT22;27754;45.414;11.084;2022-11-20T09:03:01;9.80;79.10
42097;DHT22;27754;45.414;11.084;2022-11-20T09:05:29;9.90;78.90
42097;DHT22;27754;45.414;11.084;2022-11-20T09:07:57;9.90;78.50
42097;DHT22;27754;45.414;11.084;2022-11-20T09:10:25;10.00;78.30
42097;DHT22;27754;45.414;11.084;2022-11-20T09:12:52;10.10;78.50
42097;DHT22;27754;45.414;11.084;2022-11-20T09:15:20;10.10;78.00
42097;DHT22;27754;45.414;11.084;2022-11-20T09:17:55;10.20;78.40
42097;DHT22;27754;45.414;11.084;2022-11-20T09:20:22;10.30;78.30
42097;DHT22;27754;45.414;11.084;2022-11-20T09:22:50;10.30;77.50
42097;DHT22;27754;45.414;11.084;2022-11-20T09:25:17;10.40;77.20
42097;DHT22;27754;45.414;11.084;2022-11-20T09:27:44;10.40;76.50
42097;DHT22;27754;45.414;11.084;2022-11-20T09:30:14;10.50;77.10
42097;DHT22;27754;45.414;11.084;2022-11-20T09:32:42;10.50;76.80
42097;DHT22;27754;45.414;11.084;2022-11-20T09:35:09;10.60;76.70
42097;DHT22;27754;45.414;11.084;2022-11-20T09:37:37;10.60;75.20
42097;DHT22;27754;45.414;11.084;2022-11-20T09:40:04;10.70;75.30
42097;DHT22;27754;45.414;11.084;2022-11-20T09:42:49;10.80;73.80
42097;DHT22;27754;45.414;11.084;2022-11-20T09:50:57;10.90;73.40
42097;DHT22;27754;45.414;11.084;2022-11-20T09:54:02;10.90;71.90
42097;DHT22;27754;45.414;11.084;2022-11-20T09:56:30;11.10;72.00
42097;DHT22;27754;45.414;11.084;2022-11-20T09:59:02;11.10;71.60
42097;DHT22;27754;45.414;11.084;2022-11-20T10:01:32;11.10;70.30
42097;DHT22;27754;45.414;11.084;2022-11-20T10:04:15;11.20;68.90
42097;DHT22;27754;45.414;11.084;2022-11-20T10:09:56;11.40;68.60
42097;DHT22;27754;45.414;11.084;2022-11-20T10:12:49;11.40;66.60
42097;DHT22;27754;45.414;11.084;2022-11-20T10:15:26;11.40;66.70
42097;DHT22;27754;45.414;11.084;2022-11-20T10:20:57;11.50;68.00
42097;DHT22;27754;45.414;11.084;2022-11-20T10:29:18;11.80;69.10
42097;DHT22;27754;45.414;11.084;2022-11-20T10:32:02;11.80;69.70
42097;DHT22;27754;45.414;11.084;2022-11-20T10:34:41;11.80;69.70
42097;DHT22;27754;45.414;11.084;2022-11-20T10:37:31;11.90;70.30
42097;DHT22;27754;45.414;11.084;2022-11-20T10:42:47;11.90;69.80
42097;DHT22;27754;45.414;11.084;2022-11-20T10:48:35;12.10;69.10
42097;DHT22;27754;45.414;11.084;2022-11-20T10:51:00;12.10;70.10
42097;DHT22;27754;45.414;11.084;2022-11-20T10:56:27;12.30;69.90
42097;DHT22;27754;45.414;11.084;2022-11-20T11:01:29;12.40;70.00
42097;DHT22;27754;45.414;11.084;2022-11-20T11:03:57;12.40;70.00
42097;DHT22;27754;45.414;11.084;2022-11-20T11:06:36;12.40;70.50
42097;DHT22;27754;45.414;11.084;2022-11-20T11:09:13;12.40;70.60
42097;DHT22;27754;45.414;11.084;2022-11-20T11:11:42;12.60;70.50
42097;DHT22;27754;45.414;11.084;2022-11-20T11:14:14;12.60;71.50
42097;DHT22;27754;45.414;11.084;2022-11-20T11:17:01;12.60;71.90
42097;DHT22;27754;45.414;11.084;2022-11-20T11:19:28;12.60;71.50
42097;DHT22;27754;45.414;11.084;2022-11-20T11:21:56;12.60;71.50
42097;DHT22;27754;45.414;11.084;2022-11-20T11:24:28;12.60;71.50
42097;DHT22;27754;45.414;11.084;2022-11-20T11:27:14;12.70;70.60
42097;DHT22;27754;45.414;11.084;2022-11-20T11:29:45;12.80;71.20
42097;DHT22;27754;45.414;11.084;2022-11-20T11:32:19;12.80;71.00
42097;DHT22;27754;45.414;11.084;2022-11-20T11:35:05;12.90;69.70
42097;DHT22;27754;45.414;11.084;2022-11-20T11:37:35;12.90;70.20
42097;DHT22;27754;45.414;11.084;2022-11-20T11:40:04;12.90;70.30
42097;DHT22;27754;45.414;11.084;2022-11-20T11:42:59;12.90;71.20
42097;DHT22;27754;45.414;11.084;2022-11-20T11:45:26;12.90;70.90
42097;DHT22;27754;45.414;11.084;2022-11-20T11:47:56;12.90;70.50
42097;DHT22;27754;45.414;11.084;2022-11-20T11:50:25;12.90;70.60
42097;DHT22;27754;45.414;11.084;2022-11-20T11:53:12;12.90;70.80
42097;DHT22;27754;45.414;11.084;2022-11-20T11:56:08;12.90;71.30
42097;DHT22;27754;45.414;11.084;2022-11-20T11:58:52;12.90;71.00
42097;DHT22;27754;45.414;11.084;2022-11-20T12:06:59;13.00;72.30
42097;DHT22;27754;45.414;11.084;2022-11-20T12:09:49;13.00;72.30
42097;DHT22;27754;45.414;11.084;2022-11-20T12:12:37;13.10;73.10
42097;DHT22;27754;45.414;11.084;2022-11-20T12:15:11;13.10;73.00
42097;DHT22;27754;45.414;11.084;2022-11-20T12:17:39;13.10;73.20
42097;DHT22;27754;45.414;11.084;2022-11-20T12:20:15;13.10;73.50
42097;DHT22;27754;45.414;11.084;2022-11-20T12:23:08;13.20;73.60
42097;DHT22;27754;45.414;11.084;2022-11-20T12:25:36;13.30;73.80
42097;DHT22;27754;45.414;11.084;2022-11-20T12:28:38;13.20;73.50
42097;DHT22;27754;45.414;11.084;2022-11-20T12:37:28;13.20;73.50
42097;DHT22;27754;45.414;11.084;2022-11-20T12:40:07;13.20;73.70
42097;DHT22;27754;45.414;11.084;2022-11-20T12:42:42;13.30;73.60
42097;DHT22;27754;45.414;11.084;2022-11-20T12:56:50;13.30;73.30
42097;DHT22;27754;45.414;11.084;2022-11-20T13:01:58;13.40;73.50
42097;DHT22;27754;45.414;11.084;2022-11-20T13:07:06;13.40;72.70
42097;DHT22;27754;45.414;11.084;2022-11-20T13:09:38;13.30;73.10
42097;DHT22;27754;45.414;11.084;2022-11-20T13:18:05;13.40;73.50
42097;DHT22;27754;45.414;11.084;2022-11-20T13:20:36;13.30;73.30
42097;DHT22;27754;45.414;11.084;2022-11-20T13:23:07;13.30;73.30
42097;DHT22;27754;45.414;11.084;2022-11-20T13:25:36;13.30;72.50
42097;DHT22;27754;45.414;11.084;2022-11-20T13:30:32;13.20;72.30
42097;DHT22;27754;45.414;11.084;2022-11-20T13:33:07;13.20;72.50
42097;DHT22;27754;45.414;11.084;2022-11-20T13:35:36;13.10;72.30
42097;DHT22;27754;45.414;11.084;2022-11-20T13:38:07;13.20;72.00
42097;DHT22;27754;45.414;11.084;2022-11-20T13:40:58;13.20;72.10
42097;DHT22;27754;45.414;11.084;2022-11-20T13:43:39;13.20;72.50
42097;DHT22;27754;45.414;11.084;2022-11-20T13:46:09;13.30;71.80
42097;DHT22;27754;45.414;11.084;2022-11-20T13:48:46;13.30;71.90
42097;DHT22;27754;45.414;11.084;2022-11-20T13:51:37;13.30;71.80
42097;DHT22;27754;45.414;11.084;2022-11-20T13:54:44;13.30;71.60
42097;DHT22;27754;45.414;11.084;2022-11-20T14:00:13;13.20;71.60
42097;DHT22;27754;45.414;11.084;2022-11-20T14:02:41;13.20;71.80
42097;DHT22;27754;45.414;11.084;2022-11-20T14:05:21;13.10;71.90
42097;DHT22;27754;45.414;11.084;2022-11-20T14:07:50;13.00;71.80
42097;DHT22;27754;45.414;11.084;2022-11-20T14:10:24;13.00;71.10
42097;DHT22;27754;45.414;11.084;2022-11-20T14:12:57;12.90;71.40
42097;DHT22;27754;45.414;11.084;2022-11-20T14:15:34;12.90;71.20
42097;DHT22;27754;45.414;11.084;2022-11-20T14:18:21;12.90;71.30
42097;DHT22;27754;45.414;11.084;2022-11-20T14:20:48;12.90;71.50
42097;DHT22;27754;45.414;11.084;2022-11-20T14:23:25;12.90;71.70
42097;DHT22;27754;45.414;11.084;2022-11-20T14:25:55;12.80;71.80
42097;DHT22;27754;45.414;11.084;2022-11-20T14:28:28;12.70;72.00
42097;DHT22;27754;45.414;11.084;2022-11-20T14:30:56;12.60;71.90
42097;DHT22;27754;45.414;11.084;2022-11-20T14:33:25;12.60;71.70
42097;DHT22;27754;45.414;11.084;2022-11-20T14:35:54;12.50;71.80
42097;DHT22;27754;45.414;11.084;2022-11-20T14:38:24;12.40;71.70
42097;DHT22;27754;45.414;11.084;2022-11-20T14:40:52;12.40;71.80
42097;DHT22;27754;45.414;11.084;2022-11-20T14:43:25;12.40;71.70
42097;DHT22;27754;45.414;11.084;2022-11-20T14:46:00;12.40;71.90
42097;DHT22;27754;45.414;11.084;2022-11-20T14:48:41;12.30;72.30
42097;DHT22;27754;45.414;11.084;2022-11-20T14:51:11;12.20;72.80
42097;DHT22;27754;45.414;11.084;2022-11-20T14:53:38;12.20;72.90
42097;DHT22;27754;45.414;11.084;2022-11-20T14:56:05;12.10;73.00
42097;DHT22;27754;45.414;11.084;2022-11-20T14:58:33;12.00;73.10
42097;DHT22;27754;45.414;11.084;2022-11-20T15:01:04;12.00;73.30
42097;DHT22;27754;45.414;11.084;2022-11-20T15:03:34;12.00;73.50
42097;DHT22;27754;45.414;11.084;2022-11-20T15:06:02;12.10;73.20
42097;DHT22;27754;45.414;11.084;2022-11-20T15:08:29;12.20;73.10
42097;DHT22;27754;45.414;11.084;2022-11-20T15:10:57;12.10;72.80
42097;DHT22;27754;45.414;11.084;2022-11-20T15:13:32;12.00;72.90
42097;DHT22;27754;45.414;11.084;2022-11-20T15:16:01;11.90;73.20
42097;DHT22;27754;45.414;11.084;2022-11-20T15:18:37;11.80;73.50
42097;DHT22;27754;45.414;11.084;2022-11-20T15:21:09;11.70;73.70
42097;DHT22;27754;45.414;11.084;2022-11-20T15:23:36;11.50;74.30
42097;DHT22;27754;45.414;11.084;2022-11-20T15:26:07;11.40;74.60
42097;DHT22;27754;45.414;11.084;2022-11-20T15:28:35;11.30;75.00
42097;DHT22;27754;45.414;11.084;2022-11-20T15:31:04;11.30;75.60
42097;DHT22;27754;45.414;11.084;2022-11-20T15:33:32;11.10;76.00
42097;DHT22;27754;45.414;11.084;2022-11-20T15:36:00;11.00;76.30
42097;DHT22;27754;45.414;11.084;2022-11-20T15:38:27;10.90;76.50
42097;DHT22;27754;45.414;11.084;2022-11-20T15:40:54;10.80;77.00
42097;DHT22;27754;45.414;11.084;2022-11-20T15:43:21;10.70;77.30
42097;DHT22;27754;45.414;11.084;2022-11-20T15:45:59;10.70;77.90
42097;DHT22;27754;45.414;11.084;2022-11-20T15:48:29;10.50;78.50
42097;DHT22;27754;45.414;11.084;2022-11-20T15:53:30;10.40;79.60
42097;DHT22;27754;45.414;11.084;2022-11-20T15:55:57;10.30;80.00
42097;DHT22;27754;45.414;11.084;2022-11-20T15:58:24;10.20;80.30
42097;DHT22;27754;45.414;11.084;2022-11-20T16:00:51;10.10;80.70
42097;DHT22;27754;45.414;11.084;2022-11-20T16:03:19;10.10;81.10
42097;DHT22;27754;45.414;11.084;2022-11-20T16:05:47;10.00;81.30
42097;DHT22;27754;45.414;11.084;2022-11-20T16:08:14;9.90;81.30
42097;DHT22;27754;45.414;11.084;2022-11-20T16:10:41;9.90;81.30
42097;DHT22;27754;45.414;11.084;2022-11-20T16:13:14;9.90;81.30
42097;DHT22;27754;45.414;11.084;2022-11-20T16:16:05;9.90;81.30
42097;DHT22;27754;45.414;11.084;2022-11-20T16:18:33;9.90;81.40
42097;DHT22;27754;45.414;11.084;2022-11-20T16:21:00;9.90;81.50
42097;DHT22;27754;45.414;11.084;2022-11-20T16:23:27;9.80;81.80
42097;DHT22;27754;45.414;11.084;2022-11-20T16:25:55;9.90;82.00
42097;DHT22;27754;45.414;11.084;2022-11-20T16:28:21;9.90;81.90
42097;DHT22;27754;45.414;11.084;2022-11-20T16:30:48;10.00;81.40
42097;DHT22;27754;45.414;11.084;2022-11-20T16:33:17;10.00;81.20
42097;DHT22;27754;45.414;11.084;2022-11-20T16:35:44;10.10;80.90
42097;DHT22;27754;45.414;11.084;2022-11-20T16:38:11;10.00;81.00
42097;DHT22;27754;45.414;11.084;2022-11-20T16:40:40;10.00;81.10
42097;DHT22;27754;45.414;11.084;2022-11-20T16:43:13;10.00;81.20
42097;DHT22;27754;45.414;11.084;2022-11-20T16:45:42;10.00;81.20
42097;DHT22;27754;45.414;11.084;2022-11-20T16:48:15;9.80;81.90
42097;DHT22;27754;45.414;11.084;2022-11-20T16:50:50;9.80;82.10
42097;DHT22;27754;45.414;11.084;2022-11-20T16:53:19;9.70;82.50
42097;DHT22;27754;45.414;11.084;2022-11-20T16:55:46;9.50;83.10
42097;DHT22;27754;45.414;11.084;2022-11-20T16:58:14;9.40;83.50
42097;DHT22;27754;45.414;11.084;2022-11-20T17:00:41;9.30;83.90
42097;DHT22;27754;45.414;11.084;2022-11-20T17:03:15;9.20;84.20